sensor_id;sensor_type;location;lat;lon;timestamp;P1;durP1;ratioP1;P2;durP2;ratioP2
52208;SDS011;38507;53.132;6.394;2023-05-10T00:02:08;10.43;;;7.45;;
52208;SDS011;38507;53.132;6.394;2023-05-10T00:04:34;8.65;;;7.28;;
52208;SDS011;38507;53.132;6.394;2023-05-10T00:07:00;8.93;;;7.60;;
52208;SDS011;38507;53.132;6.394;2023-05-10T00:09:26;7.47;;;6.63;;
52208;SDS011;38507;53.132;6.394;2023-05-10T00:11:52;9.63;;;7.50;;
52208;SDS011;38507;53.132;6.394;2023-05-10T00:14:17;8.23;;;6.93;;
52208;SDS011;38507;53.132;6.394;2023-05-10T00:16:43;8.77;;;7.25;;
52208;SDS011;38507;53.132;6.394;2023-05-10T00:19:09;8.95;;;7.10;;
52208;SDS011;38507;53.132;6.394;2023-05-10T00:21:35;8.52;;;6.82;;
52208;SDS011;38507;53.132;6.394;2023-05-10T00:24:01;7.07;;;6.30;;
52208;SDS011;38507;53.132;6.394;2023-05-10T00:26:27;7.45;;;6.22;;
52208;SDS011;38507;53.132;6.394;2023-05-10T00:28:52;6.90;;;5.95;;
52208;SDS011;38507;53.132;6.394;2023-05-10T00:31:18;6.93;;;6.07;;
52208;SDS011;38507;53.132;6.394;2023-05-10T00:33:43;7.30;;;5.75;;
52208;SDS011;38507;53.132;6.394;2023-05-10T00:36:09;6.70;;;6.00;;
52208;SDS011;38507;53.132;6.394;2023-05-10T00:38:35;7.30;;;6.13;;
52208;SDS011;38507;53.132;6.394;2023-05-10T00:41:00;8.95;;;6.70;;
52208;SDS011;38507;53.132;6.394;2023-05-10T00:43:26;8.57;;;7.40;;
52208;SDS011;38507;53.132;6.394;2023-05-10T00:45:52;8.13;;;7.05;;
52208;SDS011;38507;53.132;6.394;2023-05-10T00:48:18;10.05;;;8.05;;
52208;SDS011;38507;53.132;6.394;2023-05-10T00:50:44;9.73;;;8.20;;
52208;SDS011;38507;53.132;6.394;2023-05-10T00:53:10;9.68;;;8.02;;
52208;SDS011;38507;53.132;6.394;2023-05-10T00:55:36;10.20;;;8.23;;
52208;SDS011;38507;53.132;6.394;2023-05-10T00:58:02;11.07;;;8.57;;
52208;SDS011;38507;53.132;6.394;2023-05-10T01:00:28;11.45;;;8.77;;
52208;SDS011;38507;53.132;6.394;2023-05-10T01:02:54;11.85;;;9.93;;
52208;SDS011;38507;53.132;6.394;2023-05-10T01:05:20;13.27;;;9.98;;
52208;SDS011;38507;53.132;6.394;2023-05-10T01:07:46;11.60;;;9.88;;
52208;SDS011;38507;53.132;6.394;2023-05-10T01:10:11;13.70;;;11.18;;
52208;SDS011;38507;53.132;6.394;2023-05-10T01:12:38;15.90;;;10.80;;
52208;SDS011;38507;53.132;6.394;2023-05-10T01:15:08;13.52;;;11.02;;
52208;SDS011;38507;53.132;6.394;2023-05-10T01:17:37;13.00;;;11.05;;
52208;SDS011;38507;53.132;6.394;2023-05-10T01:20:05;16.13;;;11.38;;
52208;SDS011;38507;53.132;6.394;2023-05-10T01:22:46;12.60;;;10.90;;
52208;SDS011;38507;53.132;6.394;2023-05-10T01:33:21;12.73;;;10.98;;
52208;SDS011;38507;53.132;6.394;2023-05-10T01:36:20;11.93;;;9.65;;
52208;SDS011;38507;53.132;6.394;2023-05-10T01:41:55;12.45;;;9.75;;
52208;SDS011;38507;53.132;6.394;2023-05-10T01:44:35;11.80;;;9.27;;
52208;SDS011;38507;53.132;6.394;2023-05-10T01:47:12;12.57;;;9.48;;
52208;SDS011;38507;53.132;6.394;2023-05-10T01:49:52;11.57;;;8.95;;
52208;SDS011;38507;53.132;6.394;2023-05-10T01:52:22;11.88;;;8.93;;
52208;SDS011;38507;53.132;6.394;2023-05-10T01:55:00;12.00;;;9.57;;
52208;SDS011;38507;53.132;6.394;2023-05-10T01:57:32;12.15;;;9.63;;
52208;SDS011;38507;53.132;6.394;2023-05-10T01:59:59;10.95;;;9.27;;
52208;SDS011;38507;53.132;6.394;2023-05-10T02:02:28;12.55;;;9.70;;
52208;SDS011;38507;53.132;6.394;2023-05-10T02:04:58;12.80;;;9.52;;
52208;SDS011;38507;53.132;6.394;2023-05-10T02:07:24;12.38;;;9.45;;
52208;SDS011;38507;53.132;6.394;2023-05-10T02:09:53;12.13;;;9.60;;
52208;SDS011;38507;53.132;6.394;2023-05-10T02:12:19;12.48;;;9.63;;
52208;SDS011;38507;53.132;6.394;2023-05-10T02:14:47;15.18;;;10.70;;
52208;SDS011;38507;53.132;6.394;2023-05-10T02:17:15;14.75;;;10.02;;
52208;SDS011;38507;53.132;6.394;2023-05-10T02:19:42;14.13;;;10.07;;
52208;SDS011;38507;53.132;6.394;2023-05-10T02:22:10;15.43;;;10.77;;
52208;SDS011;38507;53.132;6.394;2023-05-10T02:24:36;16.77;;;11.50;;
52208;SDS011;38507;53.132;6.394;2023-05-10T02:27:03;18.08;;;11.60;;
52208;SDS011;38507;53.132;6.394;2023-05-10T02:29:30;17.58;;;12.13;;
52208;SDS011;38507;53.132;6.394;2023-05-10T02:31:57;19.15;;;13.48;;
52208;SDS011;38507;53.132;6.394;2023-05-10T02:34:25;23.08;;;13.70;;
52208;SDS011;38507;53.132;6.394;2023-05-10T02:36:52;19.27;;;13.50;;
52208;SDS011;38507;53.132;6.394;2023-05-10T02:39:19;21.75;;;13.90;;
52208;SDS011;38507;53.132;6.394;2023-05-10T02:41:46;21.65;;;13.63;;
52208;SDS011;38507;53.132;6.394;2023-05-10T02:44:14;21.13;;;14.30;;
52208;SDS011;38507;53.132;6.394;2023-05-10T02:46:42;25.63;;;15.57;;
52208;SDS011;38507;53.132;6.394;2023-05-10T02:49:08;26.33;;;15.75;;
52208;SDS011;38507;53.132;6.394;2023-05-10T02:51:35;27.80;;;16.40;;
52208;SDS011;38507;53.132;6.394;2023-05-10T02:54:12;27.42;;;16.98;;
52208;SDS011;38507;53.132;6.394;2023-05-10T02:56:45;25.75;;;16.67;;
52208;SDS011;38507;53.132;6.394;2023-05-10T02:59:15;26.63;;;17.35;;
52208;SDS011;38507;53.132;6.394;2023-05-10T03:01:41;30.40;;;18.27;;
52208;SDS011;38507;53.132;6.394;2023-05-10T03:04:07;32.95;;;18.67;;
52208;SDS011;38507;53.132;6.394;2023-05-10T03:06:32;35.80;;;18.63;;
52208;SDS011;38507;53.132;6.394;2023-05-10T03:08:58;32.28;;;18.13;;
52208;SDS011;38507;53.132;6.394;2023-05-10T03:11:43;33.53;;;18.88;;
52208;SDS011;38507;53.132;6.394;2023-05-10T03:16:50;35.13;;;18.52;;
52208;SDS011;38507;53.132;6.394;2023-05-10T03:19:26;35.78;;;18.88;;
52208;SDS011;38507;53.132;6.394;2023-05-10T03:22:03;35.70;;;17.98;;
52208;SDS011;38507;53.132;6.394;2023-05-10T03:24:31;34.33;;;18.23;;
52208;SDS011;38507;53.132;6.394;2023-05-10T03:26:59;36.55;;;18.90;;
52208;SDS011;38507;53.132;6.394;2023-05-10T03:29:27;33.70;;;17.42;;
52208;SDS011;38507;53.132;6.394;2023-05-10T03:31:54;34.05;;;18.50;;
52208;SDS011;38507;53.132;6.394;2023-05-10T03:34:23;30.25;;;18.10;;
52208;SDS011;38507;53.132;6.394;2023-05-10T03:36:49;29.80;;;16.95;;
52208;SDS011;38507;53.132;6.394;2023-05-10T03:39:15;28.85;;;16.80;;
52208;SDS011;38507;53.132;6.394;2023-05-10T03:41:40;28.40;;;16.83;;
52208;SDS011;38507;53.132;6.394;2023-05-10T03:44:06;22.73;;;14.90;;
52208;SDS011;38507;53.132;6.394;2023-05-10T03:46:32;26.30;;;17.20;;
52208;SDS011;38507;53.132;6.394;2023-05-10T03:48:57;25.92;;;16.45;;
52208;SDS011;38507;53.132;6.394;2023-05-10T03:51:23;29.65;;;16.95;;
52208;SDS011;38507;53.132;6.394;2023-05-10T03:53:52;32.53;;;16.90;;
52208;SDS011;38507;53.132;6.394;2023-05-10T03:56:19;29.65;;;16.20;;
52208;SDS011;38507;53.132;6.394;2023-05-10T03:58:45;25.48;;;15.00;;
52208;SDS011;38507;53.132;6.394;2023-05-10T04:01:11;24.77;;;14.82;;
52208;SDS011;38507;53.132;6.394;2023-05-10T04:03:37;23.00;;;13.75;;
52208;SDS011;38507;53.132;6.394;2023-05-10T04:06:03;25.33;;;15.02;;
52208;SDS011;38507;53.132;6.394;2023-05-10T04:08:29;21.30;;;13.73;;
52208;SDS011;38507;53.132;6.394;2023-05-10T04:11:04;24.40;;;14.57;;
52208;SDS011;38507;53.132;6.394;2023-05-10T04:13:33;22.42;;;14.68;;
52208;SDS011;38507;53.132;6.394;2023-05-10T04:15:59;21.95;;;13.85;;
52208;SDS011;38507;53.132;6.394;2023-05-10T04:18:25;21.85;;;13.10;;
52208;SDS011;38507;53.132;6.394;2023-05-10T04:20:51;17.80;;;12.13;;
52208;SDS011;38507;53.132;6.394;2023-05-10T04:23:17;17.10;;;11.80;;
52208;SDS011;38507;53.132;6.394;2023-05-10T04:25:42;18.30;;;12.20;;
52208;SDS011;38507;53.132;6.394;2023-05-10T04:28:08;17.45;;;12.63;;
52208;SDS011;38507;53.132;6.394;2023-05-10T04:30:34;19.42;;;13.05;;
52208;SDS011;38507;53.132;6.394;2023-05-10T04:33:00;15.70;;;11.23;;
52208;SDS011;38507;53.132;6.394;2023-05-10T04:35:27;14.85;;;10.15;;
52208;SDS011;38507;53.132;6.394;2023-05-10T04:37:53;11.90;;;7.80;;
52208;SDS011;38507;53.132;6.394;2023-05-10T04:40:19;8.23;;;6.05;;
52208;SDS011;38507;53.132;6.394;2023-05-10T04:42:45;7.55;;;4.75;;
52208;SDS011;38507;53.132;6.394;2023-05-10T04:45:11;8.07;;;5.00;;
52208;SDS011;38507;53.132;6.394;2023-05-10T04:47:37;8.55;;;4.45;;
52208;SDS011;38507;53.132;6.394;2023-05-10T04:50:03;5.78;;;4.18;;
52208;SDS011;38507;53.132;6.394;2023-05-10T04:52:29;5.40;;;3.63;;
52208;SDS011;38507;53.132;6.394;2023-05-10T04:54:55;4.80;;;3.30;;
52208;SDS011;38507;53.132;6.394;2023-05-10T04:57:20;6.35;;;3.60;;
52208;SDS011;38507;53.132;6.394;2023-05-10T04:59:47;7.13;;;4.10;;
52208;SDS011;38507;53.132;6.394;2023-05-10T05:02:12;6.50;;;3.20;;
52208;SDS011;38507;53.132;6.394;2023-05-10T05:04:38;6.45;;;3.67;;
52208;SDS011;38507;53.132;6.394;2023-05-10T05:07:03;6.78;;;3.83;;
52208;SDS011;38507;53.132;6.394;2023-05-10T05:09:29;8.32;;;4.50;;
52208;SDS011;38507;53.132;6.394;2023-05-10T05:11:57;5.57;;;4.13;;
52208;SDS011;38507;53.132;6.394;2023-05-10T05:14:22;7.68;;;4.97;;
52208;SDS011;38507;53.132;6.394;2023-05-10T05:16:50;7.78;;;5.40;;
52208;SDS011;38507;53.132;6.394;2023-05-10T05:19:18;8.38;;;5.47;;
52208;SDS011;38507;53.132;6.394;2023-05-10T05:21:44;9.15;;;6.10;;
52208;SDS011;38507;53.132;6.394;2023-05-10T05:24:10;11.45;;;6.55;;
52208;SDS011;38507;53.132;6.394;2023-05-10T05:26:37;9.32;;;6.13;;
52208;SDS011;38507;53.132;6.394;2023-05-10T05:29:03;9.98;;;7.00;;
52208;SDS011;38507;53.132;6.394;2023-05-10T05:31:29;11.27;;;6.63;;
52208;SDS011;38507;53.132;6.394;2023-05-10T05:33:55;9.63;;;7.05;;
52208;SDS011;38507;53.132;6.394;2023-05-10T05:36:21;9.13;;;6.07;;
52208;SDS011;38507;53.132;6.394;2023-05-10T05:38:46;10.57;;;6.57;;
52208;SDS011;38507;53.132;6.394;2023-05-10T05:41:12;13.88;;;7.97;;
52208;SDS011;38507;53.132;6.394;2023-05-10T05:43:38;13.63;;;7.50;;
52208;SDS011;38507;53.132;6.394;2023-05-10T05:46:05;15.70;;;8.25;;
52208;SDS011;38507;53.132;6.394;2023-05-10T05:48:31;19.13;;;9.25;;
52208;SDS011;38507;53.132;6.394;2023-05-10T05:50:56;16.77;;;9.77;;
52208;SDS011;38507;53.132;6.394;2023-05-10T05:53:22;18.40;;;11.27;;
52208;SDS011;38507;53.132;6.394;2023-05-10T05:55:52;24.38;;;12.27;;
52208;SDS011;38507;53.132;6.394;2023-05-10T05:58:19;23.77;;;12.27;;
52208;SDS011;38507;53.132;6.394;2023-05-10T06:00:45;18.10;;;10.80;;
52208;SDS011;38507;53.132;6.394;2023-05-10T06:03:10;16.98;;;10.13;;
52208;SDS011;38507;53.132;6.394;2023-05-10T06:05:36;15.10;;;9.10;;
52208;SDS011;38507;53.132;6.394;2023-05-10T06:08:02;16.38;;;9.52;;
52208;SDS011;38507;53.132;6.394;2023-05-10T06:10:28;15.07;;;9.80;;
52208;SDS011;38507;53.132;6.394;2023-05-10T06:12:53;14.75;;;9.35;;
52208;SDS011;38507;53.132;6.394;2023-05-10T06:15:19;16.95;;;9.25;;
52208;SDS011;38507;53.132;6.394;2023-05-10T06:17:45;14.68;;;9.52;;
52208;SDS011;38507;53.132;6.394;2023-05-10T06:20:12;12.07;;;8.50;;
52208;SDS011;38507;53.132;6.394;2023-05-10T06:22:38;13.30;;;8.95;;
52208;SDS011;38507;53.132;6.394;2023-05-10T06:25:03;12.73;;;8.85;;
52208;SDS011;38507;53.132;6.394;2023-05-10T06:27:29;13.65;;;8.30;;
52208;SDS011;38507;53.132;6.394;2023-05-10T06:29:55;10.30;;;6.75;;
52208;SDS011;38507;53.132;6.394;2023-05-10T06:32:21;7.80;;;5.07;;
52208;SDS011;38507;53.132;6.394;2023-05-10T06:34:47;4.78;;;3.15;;
52208;SDS011;38507;53.132;6.394;2023-05-10T06:37:12;3.63;;;2.25;;
52208;SDS011;38507;53.132;6.394;2023-05-10T06:39:38;3.72;;;2.13;;
52208;SDS011;38507;53.132;6.394;2023-05-10T06:42:04;2.95;;;2.10;;
52208;SDS011;38507;53.132;6.394;2023-05-10T06:44:30;3.03;;;1.77;;
52208;SDS011;38507;53.132;6.394;2023-05-10T06:46:55;2.95;;;1.88;;
52208;SDS011;38507;53.132;6.394;2023-05-10T06:49:21;2.92;;;1.58;;
52208;SDS011;38507;53.132;6.394;2023-05-10T06:51:47;2.10;;;1.60;;
52208;SDS011;38507;53.132;6.394;2023-05-10T06:54:13;3.88;;;1.75;;
52208;SDS011;38507;53.132;6.394;2023-05-10T06:56:39;1.45;;;1.13;;
52208;SDS011;38507;53.132;6.394;2023-05-10T06:59:04;2.40;;;1.30;;
52208;SDS011;38507;53.132;6.394;2023-05-10T07:01:30;1.92;;;1.30;;
52208;SDS011;38507;53.132;6.394;2023-05-10T07:03:56;3.58;;;1.58;;
52208;SDS011;38507;53.132;6.394;2023-05-10T07:06:21;3.05;;;1.75;;
52208;SDS011;38507;53.132;6.394;2023-05-10T07:08:47;4.70;;;2.15;;
52208;SDS011;38507;53.132;6.394;2023-05-10T07:11:12;4.25;;;2.10;;
52208;SDS011;38507;53.132;6.394;2023-05-10T07:13:38;4.30;;;2.53;;
52208;SDS011;38507;53.132;6.394;2023-05-10T07:16:06;4.32;;;2.85;;
52208;SDS011;38507;53.132;6.394;2023-05-10T07:18:32;3.95;;;2.92;;
52208;SDS011;38507;53.132;6.394;2023-05-10T07:20:58;4.38;;;3.45;;
52208;SDS011;38507;53.132;6.394;2023-05-10T07:23:24;4.22;;;3.40;;
52208;SDS011;38507;53.132;6.394;2023-05-10T07:25:50;4.97;;;3.80;;
52208;SDS011;38507;53.132;6.394;2023-05-10T07:28:19;4.80;;;4.30;;
52208;SDS011;38507;53.132;6.394;2023-05-10T07:30:45;6.55;;;4.97;;
52208;SDS011;38507;53.132;6.394;2023-05-10T07:33:12;5.78;;;4.82;;
52208;SDS011;38507;53.132;6.394;2023-05-10T07:35:38;7.50;;;5.03;;
52208;SDS011;38507;53.132;6.394;2023-05-10T07:38:04;6.60;;;5.15;;
52208;SDS011;38507;53.132;6.394;2023-05-10T07:40:30;8.23;;;4.80;;
52208;SDS011;38507;53.132;6.394;2023-05-10T07:42:56;6.75;;;5.18;;
52208;SDS011;38507;53.132;6.394;2023-05-10T07:45:22;7.07;;;5.28;;
52208;SDS011;38507;53.132;6.394;2023-05-10T07:47:48;7.45;;;5.32;;
52208;SDS011;38507;53.132;6.394;2023-05-10T07:50:14;6.35;;;5.03;;
52208;SDS011;38507;53.132;6.394;2023-05-10T07:52:40;7.95;;;6.28;;
52208;SDS011;38507;53.132;6.394;2023-05-10T07:55:06;6.88;;;5.53;;
52208;SDS011;38507;53.132;6.394;2023-05-10T07:57:33;7.03;;;5.45;;
52208;SDS011;38507;53.132;6.394;2023-05-10T07:59:59;9.82;;;4.80;;
52208;SDS011;38507;53.132;6.394;2023-05-10T08:02:24;9.23;;;5.47;;
52208;SDS011;38507;53.132;6.394;2023-05-10T08:04:50;6.55;;;4.80;;
52208;SDS011;38507;53.132;6.394;2023-05-10T08:07:16;9.23;;;5.30;;
52208;SDS011;38507;53.132;6.394;2023-05-10T08:09:42;6.75;;;5.18;;
52208;SDS011;38507;53.132;6.394;2023-05-10T08:12:08;7.15;;;5.20;;
52208;SDS011;38507;53.132;6.394;2023-05-10T08:14:34;6.10;;;4.70;;
52208;SDS011;38507;53.132;6.394;2023-05-10T08:17:01;4.78;;;3.50;;
52208;SDS011;38507;53.132;6.394;2023-05-10T08:19:28;9.05;;;4.10;;
52208;SDS011;38507;53.132;6.394;2023-05-10T08:21:53;8.23;;;4.55;;
52208;SDS011;38507;53.132;6.394;2023-05-10T08:24:20;5.85;;;4.03;;
52208;SDS011;38507;53.132;6.394;2023-05-10T08:26:47;6.78;;;4.55;;
52208;SDS011;38507;53.132;6.394;2023-05-10T08:29:13;5.68;;;4.63;;
52208;SDS011;38507;53.132;6.394;2023-05-10T08:31:39;6.50;;;4.78;;
52208;SDS011;38507;53.132;6.394;2023-05-10T08:34:05;7.80;;;5.07;;
52208;SDS011;38507;53.132;6.394;2023-05-10T08:36:30;7.15;;;4.60;;
52208;SDS011;38507;53.132;6.394;2023-05-10T08:38:57;9.30;;;5.50;;
52208;SDS011;38507;53.132;6.394;2023-05-10T08:41:23;7.28;;;5.20;;
52208;SDS011;38507;53.132;6.394;2023-05-10T08:43:50;6.93;;;5.07;;
52208;SDS011;38507;53.132;6.394;2023-05-10T08:46:17;10.35;;;5.47;;
52208;SDS011;38507;53.132;6.394;2023-05-10T08:48:44;7.68;;;6.00;;
52208;SDS011;38507;53.132;6.394;2023-05-10T08:51:12;9.55;;;5.70;;
52208;SDS011;38507;53.132;6.394;2023-05-10T08:53:39;8.90;;;6.05;;
52208;SDS011;38507;53.132;6.394;2023-05-10T08:56:06;8.38;;;6.10;;
52208;SDS011;38507;53.132;6.394;2023-05-10T08:58:32;11.52;;;6.47;;
52208;SDS011;38507;53.132;6.394;2023-05-10T09:00:58;10.32;;;5.45;;
52208;SDS011;38507;53.132;6.394;2023-05-10T09:03:25;7.80;;;5.35;;
52208;SDS011;38507;53.132;6.394;2023-05-10T09:05:51;9.95;;;5.38;;
52208;SDS011;38507;53.132;6.394;2023-05-10T09:08:17;8.57;;;5.00;;
52208;SDS011;38507;53.132;6.394;2023-05-10T09:10:44;7.32;;;5.07;;
52208;SDS011;38507;53.132;6.394;2023-05-10T09:13:12;7.53;;;4.63;;
52208;SDS011;38507;53.132;6.394;2023-05-10T09:15:40;7.75;;;4.28;;
52208;SDS011;38507;53.132;6.394;2023-05-10T09:18:09;6.22;;;4.63;;
52208;SDS011;38507;53.132;6.394;2023-05-10T09:20:34;9.35;;;5.25;;
52208;SDS011;38507;53.132;6.394;2023-05-10T09:23:00;8.32;;;5.13;;
52208;SDS011;38507;53.132;6.394;2023-05-10T09:25:26;8.18;;;5.78;;
52208;SDS011;38507;53.132;6.394;2023-05-10T09:27:52;8.38;;;5.25;;
52208;SDS011;38507;53.132;6.394;2023-05-10T09:32:53;22.02;;;6.43;;
52208;SDS011;38507;53.132;6.394;2023-05-10T09:35:21;7.75;;;5.30;;
52208;SDS011;38507;53.132;6.394;2023-05-10T09:37:49;8.57;;;6.05;;
52208;SDS011;38507;53.132;6.394;2023-05-10T09:40:17;9.20;;;5.22;;
52208;SDS011;38507;53.132;6.394;2023-05-10T09:42:58;8.82;;;5.43;;
52208;SDS011;38507;53.132;6.394;2023-05-10T09:45:25;8.00;;;5.10;;
52208;SDS011;38507;53.132;6.394;2023-05-10T09:47:53;8.77;;;5.43;;
52208;SDS011;38507;53.132;6.394;2023-05-10T09:50:19;6.93;;;4.95;;
52208;SDS011;38507;53.132;6.394;2023-05-10T09:55:24;7.78;;;5.40;;
52208;SDS011;38507;53.132;6.394;2023-05-10T09:58:00;8.80;;;5.30;;
52208;SDS011;38507;53.132;6.394;2023-05-10T10:00:26;7.18;;;5.13;;
52208;SDS011;38507;53.132;6.394;2023-05-10T10:02:56;10.43;;;4.70;;
52208;SDS011;38507;53.132;6.394;2023-05-10T10:05:30;9.05;;;5.07;;
52208;SDS011;38507;53.132;6.394;2023-05-10T10:08:01;7.38;;;5.32;;
52208;SDS011;38507;53.132;6.394;2023-05-10T10:10:29;7.75;;;5.28;;
52208;SDS011;38507;53.132;6.394;2023-05-10T10:12:56;11.07;;;5.55;;
52208;SDS011;38507;53.132;6.394;2023-05-10T10:15:22;6.95;;;4.70;;
52208;SDS011;38507;53.132;6.394;2023-05-10T10:17:49;5.97;;;4.30;;
52208;SDS011;38507;53.132;6.394;2023-05-10T10:20:16;6.32;;;4.35;;
52208;SDS011;38507;53.132;6.394;2023-05-10T10:22:42;6.95;;;4.10;;
52208;SDS011;38507;53.132;6.394;2023-05-10T10:25:09;8.02;;;4.55;;
52208;SDS011;38507;53.132;6.394;2023-05-10T10:30:25;6.05;;;3.50;;
52208;SDS011;38507;53.132;6.394;2023-05-10T10:35:17;6.20;;;3.50;;
52208;SDS011;38507;53.132;6.394;2023-05-10T10:37:44;6.63;;;3.92;;
52208;SDS011;38507;53.132;6.394;2023-05-10T10:40:23;5.40;;;3.88;;
52208;SDS011;38507;53.132;6.394;2023-05-10T10:42:54;7.63;;;4.30;;
52208;SDS011;38507;53.132;6.394;2023-05-10T10:45:21;5.32;;;4.05;;
52208;SDS011;38507;53.132;6.394;2023-05-10T10:47:47;7.32;;;4.32;;
52208;SDS011;38507;53.132;6.394;2023-05-10T10:50:15;7.15;;;4.25;;
52208;SDS011;38507;53.132;6.394;2023-05-10T10:52:43;7.57;;;5.00;;
52208;SDS011;38507;53.132;6.394;2023-05-10T10:55:11;8.40;;;5.03;;
52208;SDS011;38507;53.132;6.394;2023-05-10T11:00:22;6.68;;;4.72;;
52208;SDS011;38507;53.132;6.394;2023-05-10T11:05:26;7.10;;;5.28;;
52208;SDS011;38507;53.132;6.394;2023-05-10T11:08:06;9.05;;;4.97;;
52208;SDS011;38507;53.132;6.394;2023-05-10T11:10:49;8.00;;;4.85;;
52208;SDS011;38507;53.132;6.394;2023-05-10T11:13:17;10.32;;;5.13;;
52208;SDS011;38507;53.132;6.394;2023-05-10T11:21:50;9.63;;;5.38;;
52208;SDS011;38507;53.132;6.394;2023-05-10T11:24:36;11.80;;;6.68;;
52208;SDS011;38507;53.132;6.394;2023-05-10T11:27:02;11.30;;;6.20;;
52208;SDS011;38507;53.132;6.394;2023-05-10T11:29:28;10.73;;;7.18;;
52208;SDS011;38507;53.132;6.394;2023-05-10T11:31:53;9.27;;;6.38;;
52208;SDS011;38507;53.132;6.394;2023-05-10T11:34:26;12.85;;;7.57;;
52208;SDS011;38507;53.132;6.394;2023-05-10T11:36:54;12.05;;;7.40;;
52208;SDS011;38507;53.132;6.394;2023-05-10T11:39:21;11.27;;;7.35;;
52208;SDS011;38507;53.132;6.394;2023-05-10T11:41:50;10.88;;;7.45;;
52208;SDS011;38507;53.132;6.394;2023-05-10T11:44:16;12.98;;;7.85;;
52208;SDS011;38507;53.132;6.394;2023-05-10T11:46:41;11.60;;;6.85;;
52208;SDS011;38507;53.132;6.394;2023-05-10T11:49:07;9.30;;;6.40;;
52208;SDS011;38507;53.132;6.394;2023-05-10T11:51:34;10.90;;;6.78;;
52208;SDS011;38507;53.132;6.394;2023-05-10T11:54:07;8.20;;;5.80;;
52208;SDS011;38507;53.132;6.394;2023-05-10T11:56:34;13.27;;;6.07;;
52208;SDS011;38507;53.132;6.394;2023-05-10T11:59:00;9.57;;;6.30;;
52208;SDS011;38507;53.132;6.394;2023-05-10T12:01:27;9.10;;;5.63;;
52208;SDS011;38507;53.132;6.394;2023-05-10T12:03:54;10.95;;;5.90;;
52208;SDS011;38507;53.132;6.394;2023-05-10T12:06:26;9.10;;;5.97;;
52208;SDS011;38507;53.132;6.394;2023-05-10T12:08:53;10.10;;;5.93;;
52208;SDS011;38507;53.132;6.394;2023-05-10T12:11:19;9.70;;;5.85;;
52208;SDS011;38507;53.132;6.394;2023-05-10T12:13:49;9.90;;;5.32;;
52208;SDS011;38507;53.132;6.394;2023-05-10T12:16:15;9.90;;;6.28;;
52208;SDS011;38507;53.132;6.394;2023-05-10T12:18:43;10.55;;;6.50;;
52208;SDS011;38507;53.132;6.394;2023-05-10T12:21:13;9.80;;;6.30;;
52208;SDS011;38507;53.132;6.394;2023-05-10T12:23:40;7.53;;;5.38;;
52208;SDS011;38507;53.132;6.394;2023-05-10T12:26:08;9.88;;;5.20;;
52208;SDS011;38507;53.132;6.394;2023-05-10T12:28:37;8.15;;;5.18;;
52208;SDS011;38507;53.132;6.394;2023-05-10T12:31:07;12.05;;;5.28;;
52208;SDS011;38507;53.132;6.394;2023-05-10T12:33:40;8.88;;;5.95;;
52208;SDS011;38507;53.132;6.394;2023-05-10T12:36:10;9.68;;;5.82;;
52208;SDS011;38507;53.132;6.394;2023-05-10T12:38:39;8.55;;;5.38;;
52208;SDS011;38507;53.132;6.394;2023-05-10T12:41:09;8.50;;;5.75;;
52208;SDS011;38507;53.132;6.394;2023-05-10T12:43:35;8.65;;;6.25;;
52208;SDS011;38507;53.132;6.394;2023-05-10T12:46:08;7.78;;;5.38;;
52208;SDS011;38507;53.132;6.394;2023-05-10T12:48:39;9.27;;;5.90;;
52208;SDS011;38507;53.132;6.394;2023-05-10T12:51:06;7.32;;;5.50;;
52208;SDS011;38507;53.132;6.394;2023-05-10T12:53:40;8.55;;;5.82;;
52208;SDS011;38507;53.132;6.394;2023-05-10T12:56:06;12.05;;;5.75;;
52208;SDS011;38507;53.132;6.394;2023-05-10T12:58:32;10.43;;;5.97;;
52208;SDS011;38507;53.132;6.394;2023-05-10T13:00:58;9.80;;;6.25;;
52208;SDS011;38507;53.132;6.394;2023-05-10T13:03:25;9.88;;;6.40;;
52208;SDS011;38507;53.132;6.394;2023-05-10T13:05:50;9.07;;;5.57;;
52208;SDS011;38507;53.132;6.394;2023-05-10T13:08:16;10.02;;;5.90;;
52208;SDS011;38507;53.132;6.394;2023-05-10T13:10:42;10.02;;;5.70;;
52208;SDS011;38507;53.132;6.394;2023-05-10T13:13:07;10.32;;;6.50;;
52208;SDS011;38507;53.132;6.394;2023-05-10T13:15:33;9.13;;;5.68;;
52208;SDS011;38507;53.132;6.394;2023-05-10T13:17:59;9.75;;;5.78;;
52208;SDS011;38507;53.132;6.394;2023-05-10T13:20:25;9.45;;;5.93;;
52208;SDS011;38507;53.132;6.394;2023-05-10T13:22:51;11.30;;;6.63;;
52208;SDS011;38507;53.132;6.394;2023-05-10T13:25:17;8.35;;;5.85;;
52208;SDS011;38507;53.132;6.394;2023-05-10T13:27:43;9.18;;;5.93;;
52208;SDS011;38507;53.132;6.394;2023-05-10T13:30:09;9.95;;;5.75;;
52208;SDS011;38507;53.132;6.394;2023-05-10T13:32:36;9.07;;;5.93;;
52208;SDS011;38507;53.132;6.394;2023-05-10T13:35:02;9.93;;;5.72;;
52208;SDS011;38507;53.132;6.394;2023-05-10T13:37:28;10.05;;;5.75;;
52208;SDS011;38507;53.132;6.394;2023-05-10T13:39:55;9.40;;;5.22;;
52208;SDS011;38507;53.132;6.394;2023-05-10T13:42:21;9.50;;;4.65;;
52208;SDS011;38507;53.132;6.394;2023-05-10T13:44:48;8.35;;;5.30;;
52208;SDS011;38507;53.132;6.394;2023-05-10T13:47:14;6.97;;;4.75;;
52208;SDS011;38507;53.132;6.394;2023-05-10T13:49:40;6.03;;;4.10;;
52208;SDS011;38507;53.132;6.394;2023-05-10T13:52:06;10.05;;;6.05;;
52208;SDS011;38507;53.132;6.394;2023-05-10T13:54:33;7.43;;;4.30;;
52208;SDS011;38507;53.132;6.394;2023-05-10T13:56:59;8.45;;;4.97;;
52208;SDS011;38507;53.132;6.394;2023-05-10T13:59:25;8.20;;;5.13;;
52208;SDS011;38507;53.132;6.394;2023-05-10T14:01:50;9.38;;;5.63;;
52208;SDS011;38507;53.132;6.394;2023-05-10T14:04:16;7.88;;;5.00;;
52208;SDS011;38507;53.132;6.394;2023-05-10T14:06:42;8.73;;;5.75;;
52208;SDS011;38507;53.132;6.394;2023-05-10T14:09:07;9.02;;;6.30;;
52208;SDS011;38507;53.132;6.394;2023-05-10T14:11:33;8.65;;;6.25;;
52208;SDS011;38507;53.132;6.394;2023-05-10T14:13:59;8.52;;;5.40;;
52208;SDS011;38507;53.132;6.394;2023-05-10T14:16:24;8.20;;;5.55;;
52208;SDS011;38507;53.132;6.394;2023-05-10T14:18:51;11.68;;;5.60;;
52208;SDS011;38507;53.132;6.394;2023-05-10T14:21:16;9.25;;;6.30;;
52208;SDS011;38507;53.132;6.394;2023-05-10T14:23:42;8.27;;;6.70;;
52208;SDS011;38507;53.132;6.394;2023-05-10T14:26:08;9.10;;;6.20;;
52208;SDS011;38507;53.132;6.394;2023-05-10T14:28:33;10.63;;;7.45;;
52208;SDS011;38507;53.132;6.394;2023-05-10T14:30:59;11.25;;;6.65;;
52208;SDS011;38507;53.132;6.394;2023-05-10T14:33:25;9.30;;;7.00;;
52208;SDS011;38507;53.132;6.394;2023-05-10T14:35:50;9.93;;;7.20;;
52208;SDS011;38507;53.132;6.394;2023-05-10T14:38:16;11.73;;;6.80;;
52208;SDS011;38507;53.132;6.394;2023-05-10T14:40:41;8.63;;;6.43;;
52208;SDS011;38507;53.132;6.394;2023-05-10T14:43:08;9.65;;;6.68;;
52208;SDS011;38507;53.132;6.394;2023-05-10T14:45:33;11.23;;;7.13;;
52208;SDS011;38507;53.132;6.394;2023-05-10T14:47:59;9.55;;;6.72;;
52208;SDS011;38507;53.132;6.394;2023-05-10T14:50:25;9.43;;;6.82;;
52208;SDS011;38507;53.132;6.394;2023-05-10T14:52:51;13.00;;;7.22;;
52208;SDS011;38507;53.132;6.394;2023-05-10T14:55:17;10.35;;;6.95;;
52208;SDS011;38507;53.132;6.394;2023-05-10T14:57:42;9.75;;;6.43;;
52208;SDS011;38507;53.132;6.394;2023-05-10T15:00:09;12.23;;;8.60;;
52208;SDS011;38507;53.132;6.394;2023-05-10T15:02:35;8.77;;;6.82;;
52208;SDS011;38507;53.132;6.394;2023-05-10T15:05:01;10.30;;;6.53;;
52208;SDS011;38507;53.132;6.394;2023-05-10T15:07:27;10.85;;;7.20;;
52208;SDS011;38507;53.132;6.394;2023-05-10T15:09:53;9.50;;;6.20;;
52208;SDS011;38507;53.132;6.394;2023-05-10T15:12:19;9.68;;;6.53;;
52208;SDS011;38507;53.132;6.394;2023-05-10T15:14:44;11.70;;;7.60;;
52208;SDS011;38507;53.132;6.394;2023-05-10T15:17:10;11.82;;;7.40;;